DAL1091 KSLC-KSFO
Flight info
| Callsign | DAL1091 |
|---|---|
| Flight time | 1h 35m |
| Altitude | 38000 |
| Route | DEZRT2 BAM LLC LEGGS BDEGA4 |
| Aircraft | B738/M-SDE2E3FGHIRWXY/LB1 |
Departure
| Time | 2026-05-08 05:24 |
|---|---|
| Airport | Salt Lake City International Airport (KSLC) |
Arrival
| Time | 2026-05-08 07:00 |
|---|---|
| Airport | San Francisco International Airport (KSFO) |
| Time | Latitude | Longitude | Altitude | Speed | Heading |
|---|---|---|---|---|---|
| 2026-05-08 04:39 | 40.78837 | -111.98610 | 4230 ft | 0 kts | 354° |
| 2026-05-08 05:02 | 40.78838 | -111.98610 | 4230 ft | 0 kts | 354° |
| 2026-05-08 05:04 | 40.78771 | -111.98649 | 4229 ft | 0 kts | 56° |
| 2026-05-08 05:04 | 40.78764 | -111.98664 | 4229 ft | 0 kts | 84° |
| 2026-05-08 05:12 | 40.78764 | -111.98663 | 4229 ft | 0 kts | 84° |
| 2026-05-08 05:12 | 40.78764 | -111.98662 | 4229 ft | 0 kts | 84° |
| 2026-05-08 05:12 | 40.78764 | -111.98660 | 4229 ft | 0 kts | 84° |
| 2026-05-08 05:16 | 40.78766 | -111.98637 | 4229 ft | 4 kts | 87° |
| 2026-05-08 05:17 | 40.78767 | -111.98603 | 4230 ft | 4 kts | 88° |
| 2026-05-08 05:17 | 40.78767 | -111.98569 | 4230 ft | 4 kts | 90° |
| 2026-05-08 05:17 | 40.78769 | -111.98536 | 4231 ft | 4 kts | 84° |
| 2026-05-08 05:17 | 40.78771 | -111.98504 | 4232 ft | 3 kts | 84° |
| 2026-05-08 05:18 | 40.78773 | -111.98484 | 4232 ft | 3 kts | 84° |
| 2026-05-08 05:18 | 40.78776 | -111.98439 | 4233 ft | 5 kts | 84° |
| 2026-05-08 05:18 | 40.78782 | -111.98351 | 4231 ft | 14 kts | 84° |
| 2026-05-08 05:18 | 40.78789 | -111.98264 | 4230 ft | 15 kts | 85° |
| 2026-05-08 05:19 | 40.78797 | -111.98131 | 4230 ft | 14 kts | 85° |
| 2026-05-08 05:19 | 40.78806 | -111.98006 | 4232 ft | 14 kts | 84° |
| 2026-05-08 05:19 | 40.78816 | -111.97882 | 4233 ft | 13 kts | 81° |
| 2026-05-08 05:19 | 40.78828 | -111.97767 | 4232 ft | 13 kts | 84° |
| 2026-05-08 05:20 | 40.78784 | -111.97685 | 4231 ft | 12 kts | 174° |
| 2026-05-08 05:20 | 40.78699 | -111.97675 | 4232 ft | 12 kts | 174° |
| 2026-05-08 05:20 | 40.78616 | -111.97665 | 4232 ft | 12 kts | 175° |
| 2026-05-08 05:20 | 40.78526 | -111.97655 | 4228 ft | 16 kts | 175° |
| 2026-05-08 05:21 | 40.78377 | -111.97636 | 4225 ft | 25 kts | 175° |
| 2026-05-08 05:21 | 40.78187 | -111.97615 | 4227 ft | 28 kts | 175° |
| 2026-05-08 05:21 | 40.77999 | -111.97595 | 4250 ft | 26 kts | 175° |
| 2026-05-08 05:21 | 40.77833 | -111.97525 | 4249 ft | 24 kts | 171° |
| 2026-05-08 05:22 | 40.77669 | -111.97505 | 4252 ft | 23 kts | 174° |
| 2026-05-08 05:22 | 40.77517 | -111.97487 | 4250 ft | 20 kts | 176° |
| 2026-05-08 05:22 | 40.77479 | -111.97481 | 4250 ft | 0 kts | 164° |
| 2026-05-08 05:22 | 40.77478 | -111.97481 | 4250 ft | 2 kts | 164° |
| 2026-05-08 05:23 | 40.77448 | -111.97420 | 4250 ft | 15 kts | 78° |
| 2026-05-08 05:23 | 40.77542 | -111.97325 | 4249 ft | 15 kts | 4° |
| 2026-05-08 05:23 | 40.77552 | -111.97325 | 4249 ft | 1 kts | 358° |
| 2026-05-08 05:23 | 40.77746 | -111.97347 | 4250 ft | 66 kts | 355° |
| 2026-05-08 05:24 | 40.78468 | -111.97430 | 4229 ft | 140 kts | 355° |
| 2026-05-08 05:24 | 40.79654 | -111.97583 | 4340 ft | 194 kts | 354° |
| 2026-05-08 05:24 | 40.80987 | -111.97724 | 5349 ft | 194 kts | 356° |
| 2026-05-08 05:24 | 40.82283 | -111.98061 | 6496 ft | 191 kts | 331° |
| 2026-05-08 05:25 | 40.83256 | -111.99301 | 7018 ft | 205 kts | 298° |
| 2026-05-08 05:25 | 40.83866 | -112.01116 | 7223 ft | 227 kts | 292° |
| 2026-05-08 05:25 | 40.84453 | -112.03155 | 7446 ft | 247 kts | 291° |
| 2026-05-08 05:25 | 40.84881 | -112.05392 | 7893 ft | 261 kts | 278° |
| 2026-05-08 05:26 | 40.85020 | -112.07869 | 8344 ft | 277 kts | 275° |
| 2026-05-08 05:26 | 40.85138 | -112.10433 | 9195 ft | 278 kts | 275° |
| 2026-05-08 05:26 | 40.85266 | -112.12973 | 10118 ft | 277 kts | 276° |
| 2026-05-08 05:26 | 40.85409 | -112.15566 | 10602 ft | 294 kts | 276° |
| 2026-05-08 05:27 | 40.85577 | -112.18377 | 10782 ft | 319 kts | 276° |
| 2026-05-08 05:27 | 40.85766 | -112.21407 | 10937 ft | 342 kts | 276° |
| 2026-05-08 05:27 | 40.85968 | -112.24600 | 11365 ft | 353 kts | 276° |
| 2026-05-08 05:27 | 40.86172 | -112.27809 | 12065 ft | 355 kts | 276° |
| 2026-05-08 05:28 | 40.86379 | -112.31056 | 12885 ft | 354 kts | 276° |
| 2026-05-08 05:28 | 40.86588 | -112.34304 | 13668 ft | 355 kts | 276° |
| 2026-05-08 05:28 | 40.86797 | -112.37573 | 14284 ft | 359 kts | 276° |
| 2026-05-08 05:28 | 40.87009 | -112.40885 | 14816 ft | 364 kts | 276° |
| 2026-05-08 05:29 | 40.87167 | -112.44242 | 15358 ft | 370 kts | 272° |
| 2026-05-08 05:29 | 40.86997 | -112.47534 | 15908 ft | 375 kts | 266° |
| 2026-05-08 05:29 | 40.86729 | -112.50883 | 16455 ft | 379 kts | 267° |
| 2026-05-08 05:29 | 40.86475 | -112.54369 | 16997 ft | 383 kts | 267° |
| 2026-05-08 05:30 | 40.86234 | -112.57896 | 17531 ft | 388 kts | 268° |
| 2026-05-08 05:30 | 40.85986 | -112.61255 | 18056 ft | 391 kts | 267° |
| 2026-05-08 05:30 | 40.85694 | -112.64854 | 18527 ft | 396 kts | 266° |
| 2026-05-08 05:30 | 40.85395 | -112.68441 | 18969 ft | 400 kts | 266° |
| 2026-05-08 05:31 | 40.85116 | -112.71798 | 19404 ft | 403 kts | 266° |
| 2026-05-08 05:31 | 40.84811 | -112.75497 | 19853 ft | 407 kts | 266° |
| 2026-05-08 05:31 | 40.84505 | -112.79229 | 20294 ft | 410 kts | 266° |
| 2026-05-08 05:31 | 40.84200 | -112.82987 | 20735 ft | 414 kts | 267° |
| 2026-05-08 05:32 | 40.84066 | -112.86786 | 21163 ft | 416 kts | 272° |
| 2026-05-08 05:32 | 40.84073 | -112.90621 | 21597 ft | 419 kts | 273° |
| 2026-05-08 05:32 | 40.84118 | -112.94478 | 22013 ft | 422 kts | 274° |
| 2026-05-08 05:32 | 40.84167 | -112.98382 | 22416 ft | 426 kts | 273° |
| 2026-05-08 05:33 | 40.84206 | -113.02306 | 22804 ft | 430 kts | 273° |
| 2026-05-08 05:33 | 40.84233 | -113.06278 | 23200 ft | 433 kts | 273° |
| 2026-05-08 05:33 | 40.84250 | -113.09980 | 23545 ft | 436 kts | 273° |
| 2026-05-08 05:33 | 40.84261 | -113.14080 | 23904 ft | 438 kts | 272° |
| 2026-05-08 05:34 | 40.84267 | -113.17758 | 24295 ft | 438 kts | 272° |
| 2026-05-08 05:34 | 40.84271 | -113.21791 | 24676 ft | 439 kts | 273° |
| 2026-05-08 05:34 | 40.84273 | -113.25827 | 25020 ft | 441 kts | 273° |
| 2026-05-08 05:34 | 40.84274 | -113.29897 | 25352 ft | 443 kts | 273° |
| 2026-05-08 05:35 | 40.84275 | -113.33969 | 25693 ft | 445 kts | 273° |
| 2026-05-08 05:35 | 40.84273 | -113.38054 | 26032 ft | 446 kts | 273° |
| 2026-05-08 05:35 | 40.84271 | -113.42159 | 26359 ft | 448 kts | 273° |
| 2026-05-08 05:35 | 40.84268 | -113.46279 | 26653 ft | 450 kts | 273° |
| 2026-05-08 05:36 | 40.84262 | -113.50366 | 26954 ft | 452 kts | 273° |
| 2026-05-08 05:36 | 40.84255 | -113.54573 | 27253 ft | 453 kts | 273° |
| 2026-05-08 05:36 | 40.84247 | -113.58689 | 27552 ft | 455 kts | 273° |
| 2026-05-08 05:36 | 40.84237 | -113.62872 | 27850 ft | 456 kts | 273° |
| 2026-05-08 05:37 | 40.84226 | -113.67069 | 28138 ft | 458 kts | 273° |
| 2026-05-08 05:37 | 40.84212 | -113.71287 | 28452 ft | 458 kts | 274° |
| 2026-05-08 05:37 | 40.84198 | -113.75483 | 28871 ft | 456 kts | 273° |
| 2026-05-08 05:37 | 40.84182 | -113.79664 | 29346 ft | 454 kts | 274° |
| 2026-05-08 05:38 | 40.84164 | -113.83825 | 29809 ft | 452 kts | 274° |
| 2026-05-08 05:38 | 40.84143 | -113.87970 | 30202 ft | 451 kts | 274° |
| 2026-05-08 05:38 | 40.84119 | -113.92102 | 30536 ft | 450 kts | 274° |
| 2026-05-08 05:38 | 40.84093 | -113.96242 | 30901 ft | 449 kts | 274° |
| 2026-05-08 05:39 | 40.84065 | -114.00359 | 31285 ft | 447 kts | 274° |
| 2026-05-08 05:39 | 40.84036 | -114.04455 | 31659 ft | 446 kts | 274° |
| 2026-05-08 05:39 | 40.84007 | -114.08490 | 32003 ft | 444 kts | 274° |
| 2026-05-08 05:39 | 40.83977 | -114.12569 | 32365 ft | 443 kts | 274° |
| 2026-05-08 05:40 | 40.83945 | -114.16641 | 32711 ft | 442 kts | 274° |
| 2026-05-08 05:40 | 40.83912 | -114.20704 | 33034 ft | 441 kts | 274° |
| 2026-05-08 05:40 | 40.83877 | -114.24766 | 33363 ft | 440 kts | 274° |
| 2026-05-08 05:40 | 40.83841 | -114.28816 | 33710 ft | 439 kts | 274° |
| 2026-05-08 05:41 | 40.83805 | -114.32793 | 34024 ft | 438 kts | 274° |
| 2026-05-08 05:41 | 40.83766 | -114.36812 | 34290 ft | 437 kts | 274° |
| 2026-05-08 05:41 | 40.83726 | -114.40838 | 34545 ft | 437 kts | 274° |
| 2026-05-08 05:41 | 40.83686 | -114.44858 | 34758 ft | 437 kts | 274° |
| 2026-05-08 05:42 | 40.83643 | -114.48865 | 35018 ft | 436 kts | 274° |
| 2026-05-08 05:42 | 40.83599 | -114.52867 | 35319 ft | 434 kts | 274° |
| 2026-05-08 05:42 | 40.83554 | -114.56851 | 35604 ft | 433 kts | 274° |
| 2026-05-08 05:42 | 40.83508 | -114.60828 | 35751 ft | 434 kts | 274° |
| 2026-05-08 05:43 | 40.83461 | -114.64817 | 36005 ft | 433 kts | 274° |
| 2026-05-08 05:43 | 40.83413 | -114.68766 | 36349 ft | 430 kts | 274° |
| 2026-05-08 05:43 | 40.83362 | -114.72718 | 36645 ft | 428 kts | 274° |
| 2026-05-08 05:43 | 40.83228 | -114.76647 | 36841 ft | 431 kts | 269° |
| 2026-05-08 05:44 | 40.82837 | -114.80583 | 37028 ft | 433 kts | 266° |
| 2026-05-08 05:44 | 40.82377 | -114.84458 | 37243 ft | 433 kts | 266° |
| 2026-05-08 05:44 | 40.81893 | -114.88386 | 37490 ft | 431 kts | 266° |
| 2026-05-08 05:44 | 40.81417 | -114.92284 | 37724 ft | 430 kts | 266° |
| 2026-05-08 05:45 | 40.80952 | -114.96186 | 37927 ft | 430 kts | 266° |
| 2026-05-08 05:45 | 40.80045 | -115.04027 | 37974 ft | 433 kts | 266° |
| 2026-05-08 05:46 | 40.79146 | -115.11869 | 38011 ft | 430 kts | 266° |
| 2026-05-08 05:46 | 40.78252 | -115.19624 | 38009 ft | 429 kts | 266° |
| 2026-05-08 05:47 | 40.77346 | -115.27416 | 38002 ft | 427 kts | 266° |
| 2026-05-08 05:47 | 40.76444 | -115.35168 | 37978 ft | 428 kts | 265° |
| 2026-05-08 05:48 | 40.75533 | -115.42916 | 37985 ft | 428 kts | 265° |
| 2026-05-08 05:48 | 40.74618 | -115.50634 | 37984 ft | 429 kts | 265° |
| 2026-05-08 05:49 | 40.73690 | -115.58421 | 37987 ft | 430 kts | 265° |
| 2026-05-08 05:49 | 40.72756 | -115.66224 | 37953 ft | 430 kts | 265° |
| 2026-05-08 05:50 | 40.71816 | -115.74029 | 37968 ft | 431 kts | 265° |
| 2026-05-08 05:50 | 40.70871 | -115.81831 | 37965 ft | 431 kts | 265° |
| 2026-05-08 05:51 | 40.69923 | -115.89609 | 37965 ft | 432 kts | 265° |
| 2026-05-08 05:51 | 40.68963 | -115.97441 | 37946 ft | 433 kts | 264° |
| 2026-05-08 05:52 | 40.67998 | -116.05277 | 37955 ft | 433 kts | 264° |
| 2026-05-08 05:52 | 40.67025 | -116.13123 | 37953 ft | 434 kts | 264° |
| 2026-05-08 05:53 | 40.66044 | -116.20989 | 37966 ft | 434 kts | 264° |
| 2026-05-08 05:53 | 40.65060 | -116.28838 | 37955 ft | 435 kts | 264° |
| 2026-05-08 05:54 | 40.64074 | -116.36652 | 37959 ft | 435 kts | 264° |
| 2026-05-08 05:54 | 40.63078 | -116.44510 | 37973 ft | 435 kts | 264° |
| 2026-05-08 05:55 | 40.62076 | -116.52368 | 38003 ft | 435 kts | 264° |
| 2026-05-08 05:55 | 40.61069 | -116.60220 | 38023 ft | 435 kts | 263° |
| 2026-05-08 05:56 | 40.60064 | -116.68011 | 38055 ft | 434 kts | 263° |
| 2026-05-08 05:56 | 40.59047 | -116.75856 | 38091 ft | 434 kts | 263° |
| 2026-05-08 05:57 | 40.58027 | -116.83688 | 38095 ft | 434 kts | 263° |
| 2026-05-08 05:57 | 40.56991 | -116.91523 | 38085 ft | 435 kts | 261° |
| 2026-05-08 05:58 | 40.55240 | -116.99169 | 38087 ft | 438 kts | 253° |
| 2026-05-08 05:58 | 40.53213 | -117.06669 | 38058 ft | 438 kts | 253° |
| 2026-05-08 05:59 | 40.51187 | -117.14218 | 38037 ft | 437 kts | 254° |
| 2026-05-08 05:59 | 40.49189 | -117.21780 | 37964 ft | 437 kts | 253° |
| 2026-05-08 06:00 | 40.47203 | -117.29332 | 37971 ft | 437 kts | 253° |
| 2026-05-08 06:00 | 40.45212 | -117.36888 | 37974 ft | 438 kts | 253° |
| 2026-05-08 06:01 | 40.43216 | -117.44440 | 37972 ft | 438 kts | 253° |
| 2026-05-08 06:01 | 40.41212 | -117.51993 | 37975 ft | 437 kts | 253° |
| 2026-05-08 06:02 | 40.39212 | -117.59508 | 37983 ft | 438 kts | 253° |
| 2026-05-08 06:02 | 40.37196 | -117.67060 | 37974 ft | 439 kts | 253° |
| 2026-05-08 06:03 | 40.35171 | -117.74626 | 37971 ft | 439 kts | 253° |
| 2026-05-08 06:03 | 40.33140 | -117.82186 | 37978 ft | 440 kts | 253° |
| 2026-05-08 06:04 | 40.31114 | -117.89709 | 37975 ft | 440 kts | 252° |
| 2026-05-08 06:04 | 40.29069 | -117.97278 | 37976 ft | 440 kts | 252° |
| 2026-05-08 06:05 | 40.27021 | -118.04836 | 37978 ft | 440 kts | 252° |
| 2026-05-08 06:05 | 40.24969 | -118.12388 | 37981 ft | 439 kts | 252° |
| 2026-05-08 06:06 | 40.22917 | -118.19915 | 37975 ft | 439 kts | 252° |
| 2026-05-08 06:06 | 40.21207 | -118.26172 | 37976 ft | 439 kts | 252° |
| 2026-05-08 06:07 | 40.19146 | -118.33687 | 37995 ft | 439 kts | 252° |
| 2026-05-08 06:07 | 40.17081 | -118.41204 | 37977 ft | 439 kts | 252° |
| 2026-05-08 06:08 | 40.15010 | -118.48719 | 37987 ft | 439 kts | 252° |
| 2026-05-08 06:08 | 40.12933 | -118.56234 | 37986 ft | 440 kts | 252° |
| 2026-05-08 06:09 | 40.10793 | -118.63672 | 37984 ft | 440 kts | 250° |
| 2026-05-08 06:09 | 40.08538 | -118.71116 | 37989 ft | 441 kts | 250° |
| 2026-05-08 06:10 | 40.06277 | -118.78553 | 38065 ft | 441 kts | 250° |
| 2026-05-08 06:10 | 40.04017 | -118.86018 | 38041 ft | 441 kts | 250° |
| 2026-05-08 06:11 | 40.01777 | -118.93423 | 38028 ft | 441 kts | 250° |
| 2026-05-08 06:11 | 39.99517 | -119.00873 | 37996 ft | 442 kts | 249° |
| 2026-05-08 06:12 | 39.97252 | -119.08324 | 38012 ft | 442 kts | 249° |
| 2026-05-08 06:12 | 39.94980 | -119.15777 | 38015 ft | 442 kts | 249° |
| 2026-05-08 06:13 | 39.92698 | -119.23239 | 38014 ft | 443 kts | 249° |
| 2026-05-08 06:13 | 39.90413 | -119.30693 | 38023 ft | 443 kts | 249° |
| 2026-05-08 06:14 | 39.88117 | -119.38158 | 38031 ft | 444 kts | 249° |
| 2026-05-08 06:14 | 39.85818 | -119.45614 | 38030 ft | 444 kts | 249° |
| 2026-05-08 06:15 | 39.83528 | -119.53022 | 38073 ft | 444 kts | 249° |
| 2026-05-08 06:15 | 39.81217 | -119.60476 | 38112 ft | 444 kts | 249° |
| 2026-05-08 06:16 | 39.78901 | -119.67926 | 38156 ft | 444 kts | 249° |
| 2026-05-08 06:16 | 39.76584 | -119.75362 | 38190 ft | 444 kts | 249° |
| 2026-05-08 06:17 | 39.73095 | -119.86517 | 38224 ft | 443 kts | 249° |
| 2026-05-08 06:17 | 39.70778 | -119.93899 | 38219 ft | 443 kts | 249° |
| 2026-05-08 06:18 | 39.68450 | -120.01297 | 38076 ft | 442 kts | 249° |
| 2026-05-08 06:18 | 39.66116 | -120.08695 | 38090 ft | 442 kts | 249° |
| 2026-05-08 06:19 | 39.63780 | -120.16078 | 38088 ft | 442 kts | 249° |
| 2026-05-08 06:19 | 39.61456 | -120.23405 | 38095 ft | 442 kts | 249° |
| 2026-05-08 06:20 | 39.59109 | -120.30784 | 38107 ft | 442 kts | 249° |
| 2026-05-08 06:20 | 39.56763 | -120.38141 | 38101 ft | 442 kts | 249° |
| 2026-05-08 06:21 | 39.54410 | -120.45501 | 38110 ft | 442 kts | 249° |
| 2026-05-08 06:21 | 39.52053 | -120.52854 | 38107 ft | 442 kts | 249° |
| 2026-05-08 06:22 | 39.49686 | -120.60217 | 38108 ft | 442 kts | 249° |
| 2026-05-08 06:22 | 39.47317 | -120.67569 | 38104 ft | 443 kts | 249° |
| 2026-05-08 06:23 | 39.44943 | -120.74916 | 38104 ft | 443 kts | 249° |
| 2026-05-08 06:23 | 39.42573 | -120.82231 | 38100 ft | 443 kts | 249° |
| 2026-05-08 06:24 | 39.40183 | -120.89591 | 38092 ft | 444 kts | 249° |
| 2026-05-08 06:24 | 39.37789 | -120.96944 | 38081 ft | 443 kts | 249° |
| 2026-05-08 06:25 | 39.35391 | -121.04291 | 38140 ft | 443 kts | 249° |
| 2026-05-08 06:25 | 39.32785 | -121.11461 | 38123 ft | 445 kts | 237° |
| 2026-05-08 06:26 | 39.29085 | -121.17877 | 38134 ft | 446 kts | 234° |
| 2026-05-08 06:26 | 39.25266 | -121.24190 | 38116 ft | 446 kts | 234° |
| 2026-05-08 06:27 | 39.21484 | -121.30560 | 38036 ft | 446 kts | 234° |
| 2026-05-08 06:27 | 39.17736 | -121.36963 | 38037 ft | 446 kts | 235° |
| 2026-05-08 06:28 | 39.14000 | -121.43364 | 38038 ft | 447 kts | 235° |
| 2026-05-08 06:28 | 39.10286 | -121.49717 | 38033 ft | 447 kts | 235° |
| 2026-05-08 06:29 | 39.06538 | -121.56111 | 38040 ft | 447 kts | 235° |
| 2026-05-08 06:29 | 39.02783 | -121.62502 | 38047 ft | 447 kts | 235° |
| 2026-05-08 06:30 | 38.99024 | -121.68889 | 38046 ft | 448 kts | 235° |
| 2026-05-08 06:30 | 38.95260 | -121.75269 | 38045 ft | 448 kts | 235° |
| 2026-05-08 06:31 | 38.91507 | -121.81619 | 38033 ft | 449 kts | 235° |
| 2026-05-08 06:31 | 38.89608 | -121.84829 | 37568 ft | 455 kts | 234° |
| 2026-05-08 06:31 | 38.87691 | -121.88065 | 37038 ft | 453 kts | 234° |
| 2026-05-08 06:32 | 38.85784 | -121.91279 | 36473 ft | 451 kts | 234° |
| 2026-05-08 06:32 | 38.83885 | -121.94477 | 35860 ft | 451 kts | 234° |
| 2026-05-08 06:32 | 38.81983 | -121.97677 | 35204 ft | 451 kts | 234° |
| 2026-05-08 06:32 | 38.80075 | -122.00885 | 34544 ft | 452 kts | 234° |
| 2026-05-08 06:33 | 38.78166 | -122.04092 | 33843 ft | 453 kts | 234° |
| 2026-05-08 06:33 | 38.76248 | -122.07310 | 33056 ft | 455 kts | 233° |
| 2026-05-08 06:33 | 38.74323 | -122.10536 | 32321 ft | 455 kts | 233° |
| 2026-05-08 06:33 | 38.72399 | -122.13758 | 31578 ft | 456 kts | 233° |
| 2026-05-08 06:34 | 38.70472 | -122.16981 | 30818 ft | 456 kts | 233° |
| 2026-05-08 06:34 | 38.68557 | -122.20182 | 30066 ft | 457 kts | 233° |
| 2026-05-08 06:34 | 38.66628 | -122.23401 | 29429 ft | 453 kts | 233° |
| 2026-05-08 06:34 | 38.64725 | -122.26574 | 28875 ft | 446 kts | 233° |
| 2026-05-08 06:35 | 38.62855 | -122.29689 | 28450 ft | 437 kts | 233° |
| 2026-05-08 06:35 | 38.60997 | -122.32783 | 27732 ft | 436 kts | 233° |
| 2026-05-08 06:35 | 38.59156 | -122.35847 | 27161 ft | 432 kts | 233° |
| 2026-05-08 06:35 | 38.57343 | -122.38861 | 26962 ft | 420 kts | 233° |
| 2026-05-08 06:36 | 38.55582 | -122.41782 | 26756 ft | 408 kts | 233° |
| 2026-05-08 06:36 | 38.53822 | -122.44569 | 26538 ft | 398 kts | 226° |
| 2026-05-08 06:36 | 38.51790 | -122.46865 | 26241 ft | 392 kts | 220° |
| 2026-05-08 06:36 | 38.49652 | -122.49020 | 25774 ft | 390 kts | 219° |
| 2026-05-08 06:37 | 38.47510 | -122.51137 | 25362 ft | 387 kts | 219° |
| 2026-05-08 06:37 | 38.45392 | -122.53248 | 24924 ft | 385 kts | 219° |
| 2026-05-08 06:37 | 38.43295 | -122.55363 | 24481 ft | 384 kts | 220° |
| 2026-05-08 06:37 | 38.41209 | -122.57491 | 24023 ft | 383 kts | 220° |
| 2026-05-08 06:38 | 38.39138 | -122.59616 | 23544 ft | 382 kts | 220° |
| 2026-05-08 06:38 | 38.37074 | -122.61740 | 23041 ft | 380 kts | 220° |
| 2026-05-08 06:38 | 38.35022 | -122.63852 | 22570 ft | 378 kts | 220° |
| 2026-05-08 06:38 | 38.32981 | -122.65952 | 22116 ft | 375 kts | 220° |
| 2026-05-08 06:39 | 38.30960 | -122.68030 | 21674 ft | 372 kts | 220° |
| 2026-05-08 06:39 | 38.28952 | -122.70092 | 21237 ft | 370 kts | 220° |
| 2026-05-08 06:39 | 38.26951 | -122.72145 | 20800 ft | 368 kts | 220° |
| 2026-05-08 06:39 | 38.24989 | -122.74145 | 20374 ft | 366 kts | 218° |
| 2026-05-08 06:40 | 38.22742 | -122.75625 | 19907 ft | 367 kts | 197° |
| 2026-05-08 06:40 | 38.20216 | -122.76030 | 19516 ft | 368 kts | 178° |
| 2026-05-08 06:40 | 38.17686 | -122.75504 | 19097 ft | 368 kts | 169° |
| 2026-05-08 06:40 | 38.15190 | -122.74763 | 18634 ft | 368 kts | 168° |
| 2026-05-08 06:41 | 38.12709 | -122.73997 | 18172 ft | 367 kts | 169° |
| 2026-05-08 06:41 | 38.10229 | -122.73241 | 17703 ft | 365 kts | 168° |
| 2026-05-08 06:41 | 38.07768 | -122.72503 | 17246 ft | 363 kts | 169° |
| 2026-05-08 06:41 | 38.05300 | -122.71773 | 16701 ft | 363 kts | 168° |
| 2026-05-08 06:42 | 38.02839 | -122.71053 | 16263 ft | 361 kts | 169° |
| 2026-05-08 06:42 | 38.00405 | -122.70347 | 15817 ft | 358 kts | 170° |
| 2026-05-08 06:42 | 37.97980 | -122.69645 | 15404 ft | 356 kts | 169° |
| 2026-05-08 06:42 | 37.95574 | -122.68948 | 14994 ft | 353 kts | 169° |
| 2026-05-08 06:43 | 37.93210 | -122.68267 | 14568 ft | 352 kts | 168° |
| 2026-05-08 06:43 | 37.90838 | -122.67551 | 14140 ft | 351 kts | 165° |
| 2026-05-08 06:43 | 37.88683 | -122.66112 | 13778 ft | 352 kts | 144° |
| 2026-05-08 06:43 | 37.86806 | -122.64131 | 13419 ft | 348 kts | 141° |
| 2026-05-08 06:44 | 37.84979 | -122.62123 | 13063 ft | 346 kts | 141° |
| 2026-05-08 06:44 | 37.83156 | -122.60144 | 12732 ft | 345 kts | 141° |
| 2026-05-08 06:44 | 37.81328 | -122.58187 | 12405 ft | 345 kts | 142° |
| 2026-05-08 06:44 | 37.79512 | -122.56264 | 12087 ft | 344 kts | 142° |
| 2026-05-08 06:45 | 37.77688 | -122.54334 | 11755 ft | 340 kts | 141° |
| 2026-05-08 06:45 | 37.75885 | -122.52427 | 11439 ft | 335 kts | 141° |
| 2026-05-08 06:45 | 37.74106 | -122.50546 | 11128 ft | 331 kts | 142° |
| 2026-05-08 06:45 | 37.72369 | -122.48706 | 11016 ft | 320 kts | 141° |
| 2026-05-08 06:46 | 37.70698 | -122.46927 | 10998 ft | 307 kts | 142° |
| 2026-05-08 06:46 | 37.69091 | -122.45215 | 10987 ft | 299 kts | 142° |
| 2026-05-08 06:46 | 37.67500 | -122.43525 | 10999 ft | 298 kts | 141° |
| 2026-05-08 06:46 | 37.65909 | -122.41834 | 11012 ft | 301 kts | 141° |
| 2026-05-08 06:47 | 37.64294 | -122.40120 | 11006 ft | 305 kts | 142° |
| 2026-05-08 06:47 | 37.62671 | -122.38398 | 10996 ft | 303 kts | 142° |
| 2026-05-08 06:47 | 37.61036 | -122.36722 | 10863 ft | 304 kts | 148° |
| 2026-05-08 06:47 | 37.59189 | -122.35400 | 10529 ft | 307 kts | 155° |
| 2026-05-08 06:48 | 37.57265 | -122.34223 | 10195 ft | 306 kts | 156° |
| 2026-05-08 06:48 | 37.55341 | -122.33171 | 9922 ft | 302 kts | 162° |
| 2026-05-08 06:48 | 37.53396 | -122.32367 | 9930 ft | 287 kts | 164° |
| 2026-05-08 06:48 | 37.51465 | -122.31619 | 9327 ft | 296 kts | 165° |
| 2026-05-08 06:49 | 37.49491 | -122.30869 | 8953 ft | 297 kts | 165° |
| 2026-05-08 06:49 | 37.47512 | -122.30122 | 8632 ft | 295 kts | 165° |
| 2026-05-08 06:49 | 37.45553 | -122.29381 | 8332 ft | 293 kts | 165° |
| 2026-05-08 06:49 | 37.43614 | -122.28643 | 8074 ft | 289 kts | 165° |
| 2026-05-08 06:50 | 37.41706 | -122.27910 | 7838 ft | 283 kts | 165° |
| 2026-05-08 06:50 | 37.39837 | -122.27189 | 7637 ft | 278 kts | 165° |
| 2026-05-08 06:50 | 37.38034 | -122.26496 | 7467 ft | 272 kts | 165° |
| 2026-05-08 06:50 | 37.36239 | -122.25807 | 7328 ft | 268 kts | 165° |
| 2026-05-08 06:51 | 37.34457 | -122.25109 | 7205 ft | 267 kts | 165° |
| 2026-05-08 06:51 | 37.32683 | -122.24418 | 7127 ft | 265 kts | 164° |
| 2026-05-08 06:51 | 37.30923 | -122.23741 | 7090 ft | 266 kts | 165° |
| 2026-05-08 06:51 | 37.29151 | -122.22997 | 7010 ft | 274 kts | 156° |
| 2026-05-08 06:52 | 37.27732 | -122.21370 | 6743 ft | 285 kts | 121° |
| 2026-05-08 06:52 | 37.27192 | -122.19007 | 6530 ft | 284 kts | 92° |
| 2026-05-08 06:52 | 37.27537 | -122.16581 | 6271 ft | 282 kts | 65° |
| 2026-05-08 06:52 | 37.28674 | -122.14628 | 6050 ft | 278 kts | 37° |
| 2026-05-08 06:53 | 37.30341 | -122.13517 | 6016 ft | 271 kts | 14° |
| 2026-05-08 06:53 | 37.32156 | -122.13046 | 5998 ft | 268 kts | 8° |
| 2026-05-08 06:53 | 37.33992 | -122.12644 | 5994 ft | 268 kts | 8° |
| 2026-05-08 06:53 | 37.35835 | -122.12233 | 5987 ft | 269 kts | 8° |
| 2026-05-08 06:54 | 37.37688 | -122.11960 | 5959 ft | 269 kts | 353° |
| 2026-05-08 06:54 | 37.39524 | -122.12501 | 5653 ft | 273 kts | 341° |
| 2026-05-08 06:54 | 37.41360 | -122.13174 | 5285 ft | 275 kts | 342° |
| 2026-05-08 06:54 | 37.43208 | -122.13822 | 4952 ft | 275 kts | 342° |
| 2026-05-08 06:55 | 37.45053 | -122.14460 | 4596 ft | 275 kts | 343° |
| 2026-05-08 06:55 | 37.46903 | -122.15100 | 4258 ft | 275 kts | 342° |
| 2026-05-08 06:55 | 37.48746 | -122.15735 | 3920 ft | 274 kts | 343° |
| 2026-05-08 06:55 | 37.50587 | -122.16369 | 3585 ft | 274 kts | 343° |
| 2026-05-08 06:56 | 37.51803 | -122.16787 | 3377 ft | 273 kts | 343° |
| 2026-05-08 06:56 | 37.54014 | -122.18163 | 2888 ft | 269 kts | 310° |
| 2026-05-08 06:56 | 37.54887 | -122.20199 | 2598 ft | 264 kts | 292° |
| 2026-05-08 06:56 | 37.55377 | -122.21631 | 2373 ft | 264 kts | 294° |
| 2026-05-08 06:57 | 37.56130 | -122.23691 | 2107 ft | 253 kts | 295° |
| 2026-05-08 06:57 | 37.56910 | -122.25628 | 1797 ft | 243 kts | 296° |
| 2026-05-08 06:57 | 37.57668 | -122.27434 | 1507 ft | 229 kts | 297° |
| 2026-05-08 06:57 | 37.58386 | -122.29153 | 1195 ft | 212 kts | 296° |
| 2026-05-08 06:58 | 37.59038 | -122.30718 | 937 ft | 192 kts | 296° |
| 2026-05-08 06:58 | 37.59626 | -122.32129 | 694 ft | 174 kts | 296° |
| 2026-05-08 06:58 | 37.60162 | -122.33413 | 469 ft | 157 kts | 296° |
| 2026-05-08 06:58 | 37.60646 | -122.34573 | 276 ft | 143 kts | 296° |
| 2026-05-08 06:59 | 37.61093 | -122.35633 | 88 ft | 133 kts | 295° |
| 2026-05-08 06:59 | 37.61501 | -122.36618 | 22 ft | 118 kts | 296° |
| 2026-05-08 06:59 | 37.61857 | -122.37472 | 19 ft | 101 kts | 298° |
| 2026-05-08 06:59 | 37.62153 | -122.38176 | 24 ft | 85 kts | 297° |
| 2026-05-08 07:00 | 37.62407 | -122.38777 | 19 ft | 62 kts | 298° |
| 2026-05-08 07:00 | 37.62463 | -122.38907 | 18 ft | 13 kts | 299° |
| 2026-05-08 07:00 | 37.62519 | -122.39042 | 19 ft | 18 kts | 297° |
| 2026-05-08 07:00 | 37.62578 | -122.39184 | 21 ft | 18 kts | 297° |
| 2026-05-08 07:01 | 37.62574 | -122.39327 | 17 ft | 19 kts | 215° |
| 2026-05-08 07:01 | 37.62554 | -122.39338 | 19 ft | 0 kts | 193° |
| 2026-05-08 07:01 | 37.62542 | -122.39341 | 18 ft | 8 kts | 188° |
| 2026-05-08 07:02 | 37.62489 | -122.39274 | 18 ft | 16 kts | 118° |
| 2026-05-08 07:02 | 37.62419 | -122.39110 | 15 ft | 27 kts | 117° |
| 2026-05-08 07:02 | 37.62317 | -122.38867 | 15 ft | 33 kts | 118° |
| 2026-05-08 07:02 | 37.62203 | -122.38640 | 19 ft | 25 kts | 163° |
| 2026-05-08 07:03 | 37.62073 | -122.38553 | 17 ft | 20 kts | 168° |
| 2026-05-08 07:03 | 37.61967 | -122.38547 | 16 ft | 6 kts | 166° |
| 2026-05-08 07:03 | 37.61938 | -122.38514 | 17 ft | 6 kts | 122° |
| 2026-05-08 07:03 | 37.61933 | -122.38503 | 17 ft | 0 kts | 120° |
| 2026-05-08 07:04 | 37.61931 | -122.38498 | 17 ft | 0 kts | 120° |